createdAt,value
2018-10-18T00:00:01.898Z,14.70
2018-10-18T00:02:30.922Z,12.73
2018-10-18T00:04:59.910Z,12.93
2018-10-18T00:07:28.951Z,13.23
2018-10-18T00:09:57.966Z,12.23
2018-10-18T00:12:26.978Z,13.33
2018-10-18T00:14:56.040Z,12.87
2018-10-18T00:17:30.444Z,13.50
2018-10-18T00:19:59.461Z,12.60
2018-10-18T00:22:28.467Z,12.70
2018-10-18T00:24:57.459Z,12.13
2018-10-18T00:27:26.486Z,13.13
2018-10-18T00:29:55.963Z,13.13
2018-10-18T00:32:24.965Z,13.70
2018-10-18T00:34:53.995Z,13.10
2018-10-18T00:37:23.014Z,14.00
2018-10-18T00:39:52.036Z,13.00
2018-10-18T00:42:21.091Z,13.20
2018-10-18T00:44:50.103Z,12.87
2018-10-18T00:47:19.150Z,13.13
2018-10-18T00:49:48.174Z,12.50
2018-10-18T00:52:17.218Z,14.37
2018-10-18T00:54:46.214Z,12.27
2018-10-18T00:57:15.262Z,13.27
2018-10-18T00:59:44.256Z,13.50
2018-10-18T01:02:13.322Z,13.33
2018-10-18T01:04:42.290Z,11.77
2018-10-18T01:07:11.355Z,13.60
2018-10-18T01:09:40.358Z,13.13
2018-10-18T01:12:09.578Z,12.60
2018-10-18T01:14:38.463Z,12.83
2018-10-18T01:17:07.494Z,13.20
2018-10-18T01:19:37.528Z,12.70
2018-10-18T01:22:07.363Z,14.23
2018-10-18T01:24:37.042Z,14.20
2018-10-18T01:27:06.681Z,13.03
2018-10-18T01:29:35.672Z,14.37
2018-10-18T01:32:05.265Z,13.83
2018-10-18T01:34:34.247Z,13.23
2018-10-18T01:37:03.276Z,13.57
2018-10-18T01:39:32.251Z,13.63
2018-10-18T01:42:01.367Z,12.40
2018-10-18T01:44:30.279Z,14.83
2018-10-18T01:46:59.273Z,12.83
2018-10-18T01:49:28.298Z,12.37
2018-10-18T01:51:57.279Z,13.73
2018-10-18T01:54:26.301Z,13.60
2018-10-18T01:56:55.318Z,12.83
2018-10-18T01:59:24.351Z,14.47
2018-10-18T02:01:53.398Z,15.30
2018-10-18T02:04:22.426Z,14.43
2018-10-18T02:06:51.424Z,13.00
2018-10-18T02:09:20.443Z,13.47
2018-10-18T02:11:49.447Z,13.10
2018-10-18T02:14:18.506Z,14.47
2018-10-18T02:16:47.540Z,14.07
2018-10-18T02:19:16.632Z,13.60
2018-10-18T02:21:45.575Z,14.70
2018-10-18T02:24:14.711Z,13.13
2018-10-18T02:26:43.628Z,16.23
2018-10-18T02:29:12.663Z,13.17
2018-10-18T02:31:41.663Z,14.60
2018-10-18T02:34:10.691Z,14.17
2018-10-18T02:36:39.678Z,14.43
2018-10-18T02:39:10.027Z,13.63
2018-10-18T02:41:39.043Z,13.40
2018-10-18T02:44:08.112Z,13.73
2018-10-18T02:46:37.112Z,13.27
2018-10-18T02:49:06.172Z,13.27
2018-10-18T02:51:35.148Z,14.70
2018-10-18T02:54:04.222Z,13.20
2018-10-18T02:56:33.193Z,14.83
2018-10-18T02:59:02.216Z,14.90
2018-10-18T03:01:31.222Z,13.93
2018-10-18T03:04:00.257Z,14.03
2018-10-18T03:06:29.251Z,14.00
2018-10-18T03:08:58.287Z,13.83
2018-10-18T03:11:27.285Z,14.07
2018-10-18T03:13:56.350Z,13.63
2018-10-18T03:16:25.363Z,14.70
2018-10-18T03:18:54.422Z,14.90
2018-10-18T03:21:23.423Z,15.90
2018-10-18T03:23:52.475Z,16.80
2018-10-18T03:26:21.490Z,14.40
2018-10-18T03:28:50.515Z,14.73
2018-10-18T03:31:19.519Z,13.20
2018-10-18T03:33:48.556Z,13.83
2018-10-18T03:36:18.096Z,16.47
2018-10-18T03:38:47.100Z,15.10
2018-10-18T03:41:16.139Z,23.03
2018-10-18T03:43:45.150Z,15.40
2018-10-18T03:46:14.188Z,15.50
2018-10-18T03:48:43.170Z,15.30
2018-10-18T03:51:12.228Z,14.70
2018-10-18T03:53:41.241Z,14.23
2018-10-18T03:56:10.295Z,16.20
2018-10-18T03:58:39.308Z,15.83
2018-10-18T04:01:08.327Z,18.20
2018-10-18T04:03:37.324Z,17.33
2018-10-18T04:06:06.419Z,19.17
2018-10-18T04:08:35.378Z,19.80
2018-10-18T04:11:04.438Z,20.30
2018-10-18T04:13:33.480Z,20.77
2018-10-18T04:16:02.539Z,18.83
2018-10-18T04:18:31.572Z,16.93
2018-10-18T04:21:00.583Z,16.30
2018-10-18T04:23:33.233Z,15.10
2018-10-18T04:26:03.394Z,14.07
2018-10-18T04:28:33.076Z,14.20
2018-10-18T04:31:03.105Z,15.10
2018-10-18T04:33:32.278Z,13.50
2018-10-18T04:36:01.356Z,16.80
2018-10-18T04:38:30.335Z,15.37
2018-10-18T04:40:59.354Z,17.40
2018-10-18T04:43:28.367Z,16.47
2018-10-18T04:45:57.383Z,16.13
2018-10-18T04:48:26.472Z,14.97
2018-10-18T04:50:55.473Z,15.00
2018-10-18T04:53:24.464Z,14.27
2018-10-18T04:55:53.563Z,15.23
2018-10-18T04:58:22.540Z,17.60
2018-10-18T05:00:57.117Z,20.90
2018-10-18T05:03:26.102Z,18.70
2018-10-18T05:05:56.531Z,21.80
2018-10-18T05:08:26.375Z,19.80
2018-10-18T05:10:55.605Z,17.57
2018-10-18T05:13:24.805Z,16.57
2018-10-18T05:15:53.974Z,19.67
2018-10-18T05:18:23.623Z,15.90
2018-10-18T05:20:52.643Z,14.67
2018-10-18T05:23:21.688Z,14.53
2018-10-18T05:25:51.295Z,14.87
2018-10-18T05:28:20.603Z,13.67
2018-10-18T05:30:49.591Z,14.90
2018-10-18T05:33:18.646Z,17.20
2018-10-18T05:35:47.616Z,20.90
2018-10-18T05:38:16.665Z,22.67
2018-10-18T05:40:45.767Z,22.53
2018-10-18T05:43:15.005Z,20.50
2018-10-18T05:45:43.987Z,20.70
2018-10-18T05:48:13.059Z,17.33
2018-10-18T05:50:42.134Z,18.40
2018-10-18T05:53:11.262Z,24.00
2018-10-18T05:55:40.270Z,17.93
2018-10-18T05:58:09.331Z,22.37
2018-10-18T06:00:38.340Z,25.93
2018-10-18T06:03:07.408Z,29.70
2018-10-18T06:05:36.420Z,30.13
2018-10-18T06:08:05.601Z,22.63
2018-10-18T06:10:45.920Z,30.00
2018-10-18T06:13:15.054Z,28.20
2018-10-18T06:15:44.043Z,31.13
2018-10-18T06:18:13.078Z,35.87
2018-10-18T06:20:42.099Z,36.87
2018-10-18T06:23:12.564Z,34.07
2018-10-18T06:25:41.610Z,38.10
2018-10-18T06:28:10.667Z,36.50
2018-10-18T06:30:39.751Z,38.70
2018-10-18T06:33:08.767Z,37.50
2018-10-18T06:35:37.824Z,37.20
2018-10-18T06:38:06.846Z,25.00
2018-10-18T06:40:35.936Z,16.63
2018-10-18T06:43:05.189Z,17.37
2018-10-18T06:45:34.239Z,15.67
2018-10-18T06:48:03.353Z,17.00
2018-10-18T06:50:32.346Z,16.60
2018-10-18T06:53:01.456Z,16.37
2018-10-18T06:55:30.531Z,16.03
2018-10-18T06:57:59.588Z,16.50
2018-10-18T07:00:28.709Z,15.33
2018-10-18T07:02:57.713Z,15.90
2018-10-18T07:05:26.764Z,17.90
2018-10-18T07:07:55.754Z,18.60
2018-10-18T07:10:24.835Z,16.10
2018-10-18T07:12:53.839Z,18.93
2018-10-18T07:15:22.879Z,17.23
2018-10-18T07:17:51.974Z,17.47
2018-10-18T07:20:20.967Z,19.30
2018-10-18T07:22:49.976Z,18.80
2018-10-18T07:25:19.092Z,17.80
2018-10-18T07:27:48.061Z,20.37
2018-10-18T07:30:17.152Z,19.63
2018-10-18T07:32:46.130Z,21.77
2018-10-18T07:35:15.295Z,24.03
2018-10-18T07:37:44.395Z,25.37
2018-10-18T07:40:15.041Z,26.37
2018-10-18T07:42:44.224Z,28.40
2018-10-18T07:45:14.287Z,26.77
2018-10-18T07:47:43.956Z,27.50
2018-10-18T07:50:13.376Z,28.03
2018-10-18T07:52:42.410Z,25.53
2018-10-18T07:55:11.636Z,23.40
2018-10-18T07:57:40.650Z,25.40
2018-10-18T08:00:12.035Z,25.37
2018-10-18T08:02:41.376Z,25.17
2018-10-18T08:05:11.052Z,23.67
2018-10-18T08:07:40.091Z,28.43
2018-10-18T08:10:12.636Z,24.60
2018-10-18T08:12:41.747Z,26.47
2018-10-18T08:15:12.129Z,25.60
2018-10-18T08:17:41.697Z,28.03
2018-10-18T08:20:11.424Z,29.10
2018-10-18T08:22:40.834Z,26.97
2018-10-18T08:25:10.001Z,27.80
2018-10-18T08:27:38.969Z,28.17
2018-10-18T08:30:09.714Z,27.17
2018-10-18T08:32:38.798Z,26.63
2018-10-18T08:35:08.842Z,27.10
2018-10-18T08:37:38.006Z,29.90
2018-10-18T08:40:07.474Z,29.60
2018-10-18T08:42:36.586Z,29.40
2018-10-18T08:45:07.235Z,28.60
2018-10-18T08:47:36.433Z,29.80
2018-10-18T08:50:07.342Z,30.27
2018-10-18T08:52:36.407Z,28.30
2018-10-18T08:55:06.810Z,27.70
2018-10-18T08:57:36.875Z,27.43
2018-10-18T09:00:07.625Z,27.10
2018-10-18T09:02:36.707Z,27.20
2018-10-18T09:05:06.359Z,27.47
2018-10-18T09:07:35.456Z,27.67
2018-10-18T09:10:05.088Z,26.80
2018-10-18T09:12:34.157Z,26.30
2018-10-18T09:15:03.231Z,26.63
2018-10-18T09:17:32.284Z,26.00
2018-10-18T09:20:01.292Z,27.43
2018-10-18T09:22:30.396Z,25.93
2018-10-18T09:24:59.418Z,24.83
2018-10-18T09:27:28.530Z,26.07
2018-10-18T09:29:57.535Z,24.70
2018-10-18T09:32:26.575Z,24.77
2018-10-18T09:34:55.587Z,26.00
2018-10-18T09:37:24.898Z,26.37
2018-10-18T09:39:53.939Z,25.47
2018-10-18T09:42:23.017Z,24.83
2018-10-18T09:44:52.123Z,25.30
2018-10-18T09:47:21.104Z,25.80
2018-10-18T09:49:50.264Z,25.47
2018-10-18T09:52:19.410Z,25.83
2018-10-18T09:54:48.521Z,25.40
2018-10-18T09:57:17.592Z,25.00
2018-10-18T09:59:46.603Z,24.07
2018-10-18T10:02:20.980Z,24.83
2018-10-18T10:04:50.011Z,22.53
2018-10-18T10:07:20.811Z,23.00
2018-10-18T10:09:49.844Z,23.80
2018-10-18T10:12:19.148Z,22.73
2018-10-18T10:14:48.321Z,21.33
2018-10-18T10:17:17.400Z,21.93
2018-10-18T10:19:46.382Z,21.20
2018-10-18T10:22:15.500Z,22.60
2018-10-18T10:24:44.641Z,21.20
2018-10-18T10:27:13.668Z,21.40
2018-10-18T10:29:42.680Z,22.03
2018-10-18T10:32:11.715Z,23.57
2018-10-18T10:34:40.812Z,20.10
2018-10-18T10:37:09.904Z,21.53
2018-10-18T10:39:38.873Z,21.53
2018-10-18T10:42:08.137Z,21.60
2018-10-18T10:44:37.116Z,20.87
2018-10-18T10:47:06.579Z,22.47
2018-10-18T10:49:35.592Z,21.90
2018-10-18T10:52:04.700Z,21.47
2018-10-18T10:54:33.667Z,21.73
2018-10-18T10:57:02.819Z,22.90
2018-10-18T10:59:31.788Z,21.47
2018-10-18T11:02:00.898Z,22.60
2018-10-18T11:04:29.835Z,22.23
2018-10-18T11:06:58.884Z,22.10
2018-10-18T11:09:28.096Z,21.03
2018-10-18T11:11:57.048Z,22.50
2018-10-18T11:14:26.025Z,23.50
2018-10-18T11:16:55.099Z,22.37
2018-10-18T11:19:24.159Z,21.83
2018-10-18T11:21:53.211Z,21.83
2018-10-18T11:24:22.243Z,22.40
2018-10-18T11:26:51.271Z,21.87
2018-10-18T11:29:20.306Z,24.47
2018-10-18T11:31:49.323Z,31.10
2018-10-18T11:34:18.397Z,23.30
2018-10-18T11:36:47.399Z,23.13
2018-10-18T11:39:16.438Z,23.27
2018-10-18T11:41:45.415Z,25.07
2018-10-18T11:44:14.488Z,22.50
2018-10-18T11:46:43.482Z,22.40
2018-10-18T11:49:12.535Z,20.83
2018-10-18T11:51:41.684Z,24.03
2018-10-18T11:54:10.663Z,24.60
2018-10-18T11:56:39.608Z,45.00
2018-10-18T11:59:08.678Z,21.60
2018-10-18T12:01:37.705Z,20.90
2018-10-18T12:04:06.823Z,20.03
2018-10-18T12:06:35.841Z,20.97
2018-10-18T12:09:08.012Z,22.50
2018-10-18T12:11:37.120Z,30.83
2018-10-18T12:14:07.097Z,21.03
2018-10-18T12:16:36.121Z,21.50
2018-10-18T12:19:05.564Z,21.13
2018-10-18T12:21:34.522Z,23.53
2018-10-18T12:24:03.667Z,19.60
2018-10-18T12:26:32.705Z,31.70
2018-10-18T12:29:01.920Z,20.33
2018-10-18T12:31:30.941Z,19.33
2018-10-18T12:33:59.992Z,19.73
2018-10-18T12:36:29.030Z,18.93
2018-10-18T12:38:58.097Z,18.33
2018-10-18T12:41:27.359Z,19.23
2018-10-18T12:44:02.280Z,18.83
2018-10-18T12:46:37.749Z,20.20
2018-10-18T12:49:07.579Z,18.70
2018-10-18T12:51:41.953Z,18.53
2018-10-18T12:54:17.392Z,18.30
2018-10-18T12:56:49.575Z,18.93
2018-10-18T12:59:18.832Z,17.50
2018-10-18T13:01:47.951Z,18.07
2018-10-18T13:04:17.021Z,18.93
2018-10-18T13:06:46.046Z,17.73
2018-10-18T13:09:15.107Z,18.67
2018-10-18T13:11:44.147Z,18.40
2018-10-18T13:14:13.365Z,17.60
2018-10-18T13:16:42.335Z,16.97
2018-10-18T13:19:11.451Z,18.63
2018-10-18T13:21:40.490Z,17.47
2018-10-18T13:24:09.665Z,16.90
2018-10-18T13:26:38.735Z,20.53
2018-10-18T13:29:08.195Z,17.77
2018-10-18T13:31:37.249Z,18.37
2018-10-18T13:34:06.578Z,18.20
2018-10-18T13:36:35.603Z,18.43
2018-10-18T13:39:07.199Z,17.47
2018-10-18T13:41:36.279Z,19.07
2018-10-18T13:44:05.419Z,24.80
2018-10-18T13:46:34.710Z,21.60
2018-10-18T13:49:04.243Z,22.23
2018-10-18T13:51:33.358Z,21.00
2018-10-18T13:54:02.564Z,19.73
2018-10-18T13:56:31.580Z,18.50
2018-10-18T13:59:00.655Z,18.40
2018-10-18T14:01:29.722Z,20.77
2018-10-18T14:03:58.773Z,19.50
2018-10-18T14:06:27.831Z,20.53
2018-10-18T14:08:57.132Z,20.00
2018-10-18T14:11:26.199Z,18.60
2018-10-18T14:13:55.300Z,18.93
2018-10-18T14:16:24.331Z,19.57
2018-10-18T14:18:53.368Z,20.27
2018-10-18T14:21:22.477Z,23.43
2018-10-18T14:23:51.539Z,18.37
2018-10-18T14:26:20.633Z,17.47
2018-10-18T14:28:49.627Z,17.80
2018-10-18T14:31:18.678Z,18.13
2018-10-18T14:33:47.734Z,19.17
2018-10-18T14:36:17.293Z,16.80
2018-10-18T14:38:46.514Z,19.47
2018-10-18T14:41:15.570Z,16.60
2018-10-18T14:43:44.651Z,17.07
2018-10-18T14:46:14.060Z,17.23
2018-10-18T14:48:43.122Z,16.50
2018-10-18T14:51:12.227Z,17.67
2018-10-18T14:53:41.255Z,15.93
2018-10-18T14:56:10.496Z,16.93
2018-10-18T14:58:39.508Z,15.20
2018-10-18T15:01:08.600Z,16.67
2018-10-18T15:03:37.638Z,16.50
2018-10-18T15:06:07.044Z,15.90
2018-10-18T15:08:36.129Z,14.97
2018-10-18T15:11:05.819Z,14.97
2018-10-18T15:13:35.073Z,15.87
2018-10-18T15:16:04.175Z,16.40
2018-10-18T15:18:33.206Z,15.70
2018-10-18T15:21:02.316Z,15.40
2018-10-18T15:23:31.363Z,14.97
2018-10-18T15:26:00.445Z,15.90
2018-10-18T15:28:29.571Z,16.50
2018-10-18T15:30:58.691Z,16.20
2018-10-18T15:33:27.756Z,15.20
2018-10-18T15:35:56.824Z,15.10
2018-10-18T15:38:26.088Z,14.83
2018-10-18T15:40:55.061Z,14.17
2018-10-18T15:43:24.214Z,15.80
2018-10-18T15:45:53.324Z,14.07
2018-10-18T15:48:22.391Z,12.93
2018-10-18T15:50:51.793Z,13.97
2018-10-18T15:53:20.831Z,15.10
2018-10-18T15:55:49.858Z,14.40
2018-10-18T15:58:18.970Z,13.53
2018-10-18T16:00:48.142Z,13.43
2018-10-18T16:03:17.311Z,14.93
2018-10-18T16:05:46.243Z,14.97
2018-10-18T16:08:15.339Z,14.17
2018-10-18T16:10:44.399Z,13.90
2018-10-18T16:13:13.520Z,13.33
2018-10-18T16:15:42.921Z,14.80
2018-10-18T16:18:11.973Z,14.63
2018-10-18T16:20:41.005Z,15.07
2018-10-18T16:23:10.151Z,18.50
2018-10-18T16:25:39.619Z,15.27
2018-10-18T16:28:08.709Z,15.63
2018-10-18T16:30:37.732Z,16.57
2018-10-18T16:33:06.775Z,14.07
2018-10-18T16:35:35.757Z,13.50
2018-10-18T16:38:05.115Z,13.60
2018-10-18T16:40:34.160Z,14.00
2018-10-18T16:43:03.235Z,14.30
2018-10-18T16:45:32.246Z,13.50
2018-10-18T16:48:01.267Z,13.30
2018-10-18T16:50:30.316Z,13.33
2018-10-18T16:52:59.309Z,14.90
2018-10-18T16:55:28.420Z,16.47
2018-10-18T16:57:57.452Z,15.20
2018-10-18T17:00:26.443Z,16.30
2018-10-18T17:02:55.476Z,15.03
2018-10-18T17:05:24.486Z,16.33
2018-10-18T17:07:53.566Z,15.67
2018-10-18T17:10:22.731Z,14.10
2018-10-18T17:12:51.874Z,16.87
2018-10-18T17:15:20.889Z,15.00
2018-10-18T17:17:50.377Z,15.80
2018-10-18T17:20:19.399Z,17.70
2018-10-18T17:22:48.417Z,14.97
2018-10-18T17:25:17.454Z,15.87
2018-10-18T17:27:46.628Z,15.37
2018-10-18T17:30:15.628Z,15.07
2018-10-18T17:32:44.745Z,16.87
2018-10-18T17:35:13.719Z,16.60
2018-10-18T17:37:42.728Z,18.33
2018-10-18T17:40:11.790Z,18.00
2018-10-18T17:42:40.792Z,17.20
2018-10-18T17:45:11.022Z,16.87
2018-10-18T17:47:40.224Z,18.40
2018-10-18T17:50:09.816Z,18.50
2018-10-18T17:52:38.879Z,19.40
2018-10-18T17:55:08.620Z,17.93
2018-10-18T17:57:38.404Z,18.77
2018-10-18T18:00:11.692Z,18.13
2018-10-18T18:02:40.981Z,19.10
2018-10-18T18:05:11.063Z,17.63
2018-10-18T18:07:40.151Z,20.53
2018-10-18T18:10:11.988Z,17.90
2018-10-18T18:12:41.367Z,16.60
2018-10-18T18:15:10.835Z,18.50
2018-10-18T18:17:40.328Z,18.40
2018-10-18T18:20:10.995Z,18.00
2018-10-18T18:22:41.962Z,18.20
2018-10-18T18:25:12.051Z,17.60
2018-10-18T18:27:41.111Z,17.97
2018-10-18T18:30:12.917Z,17.47
2018-10-18T18:32:42.679Z,17.10
2018-10-18T18:35:11.839Z,17.57
2018-10-18T18:37:41.109Z,16.83
2018-10-18T18:40:10.478Z,15.63
2018-10-18T18:42:40.433Z,17.83
2018-10-18T18:45:14.955Z,17.67
2018-10-18T18:47:44.015Z,16.13
2018-10-18T18:50:14.135Z,17.33
2018-10-18T18:52:43.224Z,17.33
2018-10-18T18:55:12.471Z,17.63
2018-10-18T18:57:41.687Z,16.80
2018-10-18T19:00:11.971Z,18.13
2018-10-18T19:02:41.227Z,17.10
2018-10-18T19:05:10.284Z,17.83
2018-10-18T19:07:39.312Z,17.27
2018-10-18T19:10:08.878Z,18.70
2018-10-18T19:12:37.950Z,17.67
2018-10-18T19:15:08.295Z,18.77
2018-10-18T19:17:38.296Z,17.83
2018-10-18T19:20:07.422Z,18.70
2018-10-18T19:22:36.525Z,17.97
2018-10-18T19:25:06.818Z,20.40
2018-10-18T19:27:35.999Z,17.60
2018-10-18T19:30:06.607Z,18.40
2018-10-18T19:32:35.727Z,19.73
2018-10-18T19:35:04.999Z,19.00
2018-10-18T19:37:34.069Z,18.50
2018-10-18T19:40:03.238Z,19.70
2018-10-18T19:42:32.282Z,19.10
2018-10-18T19:45:01.315Z,20.20
2018-10-18T19:47:30.371Z,19.20
2018-10-18T19:49:59.517Z,20.00
2018-10-18T19:52:28.606Z,19.50
2018-10-18T19:54:57.547Z,17.93
2018-10-18T19:57:26.602Z,19.17
2018-10-18T19:59:55.638Z,18.93
2018-10-18T20:02:24.691Z,20.00
2018-10-18T20:04:53.727Z,20.10
2018-10-18T20:07:22.878Z,19.10
2018-10-18T20:09:51.943Z,20.10
2018-10-18T20:12:21.043Z,19.37
2018-10-18T20:14:50.081Z,17.90
2018-10-18T20:17:19.113Z,20.00
2018-10-18T20:19:48.178Z,19.40
2018-10-18T20:22:17.292Z,20.97
2018-10-18T20:24:46.503Z,20.50
2018-10-18T20:27:15.460Z,18.40
2018-10-18T20:29:44.474Z,19.23
2018-10-18T20:32:13.535Z,19.87
2018-10-18T20:34:42.587Z,19.07
2018-10-18T20:37:11.620Z,20.10
2018-10-18T20:39:40.732Z,19.23
2018-10-18T20:42:09.734Z,19.90
2018-10-18T20:44:38.771Z,19.47
2018-10-18T20:47:07.848Z,19.60
2018-10-18T20:49:36.847Z,20.73
2018-10-18T20:52:06.347Z,18.83
2018-10-18T20:54:35.374Z,19.70
2018-10-18T20:57:04.425Z,19.33
2018-10-18T20:59:33.503Z,18.30
2018-10-18T21:02:02.531Z,20.30
2018-10-18T21:04:31.544Z,19.40
2018-10-18T21:07:00.638Z,20.30
2018-10-18T21:09:29.651Z,20.07
2018-10-18T21:11:58.684Z,19.63
2018-10-18T21:14:27.671Z,20.83
2018-10-18T21:16:56.720Z,21.77
2018-10-18T21:19:25.727Z,20.10
2018-10-18T21:21:54.765Z,20.60
2018-10-18T21:24:23.755Z,19.03
2018-10-18T21:26:52.793Z,21.50
2018-10-18T21:29:21.819Z,21.50
2018-10-18T21:31:50.847Z,20.17
2018-10-18T21:34:20.238Z,21.40
2018-10-18T21:36:49.397Z,21.20
2018-10-18T21:39:27.328Z,21.90
2018-10-18T21:41:56.406Z,22.10
2018-10-18T21:44:28.048Z,21.83
2018-10-18T21:46:57.187Z,23.83
2018-10-18T21:49:26.816Z,21.90
2018-10-18T21:51:55.848Z,23.20
2018-10-18T21:54:25.519Z,21.97
2018-10-18T21:56:54.627Z,21.53
2018-10-18T21:59:23.947Z,23.57
2018-10-18T22:01:52.942Z,22.77
2018-10-18T22:04:21.923Z,22.40
2018-10-18T22:06:51.233Z,20.40
2018-10-18T22:09:20.239Z,23.03
2018-10-18T22:11:49.301Z,21.23
2018-10-18T22:14:18.353Z,24.07
2018-10-18T22:16:47.331Z,25.43
2018-10-18T22:19:16.357Z,22.60
2018-10-18T22:21:45.385Z,24.53
2018-10-18T22:24:14.427Z,24.97
2018-10-18T22:26:43.518Z,24.70
2018-10-18T22:29:12.753Z,26.40
2018-10-18T22:31:41.659Z,26.17
2018-10-18T22:34:10.681Z,24.43
2018-10-18T22:36:39.715Z,26.17
2018-10-18T22:39:10.334Z,25.37
2018-10-18T22:41:39.869Z,24.80
2018-10-18T22:44:09.934Z,28.53
2018-10-18T22:46:38.963Z,27.20
2018-10-18T22:49:07.998Z,29.00
2018-10-18T22:51:37.051Z,30.40
2018-10-18T22:54:06.220Z,30.10
2018-10-18T22:56:35.311Z,31.57
2018-10-18T22:59:04.359Z,35.23
2018-10-18T23:01:33.410Z,34.10
2018-10-18T23:04:02.432Z,34.47
2018-10-18T23:06:31.450Z,37.87
2018-10-18T23:09:00.520Z,38.43
2018-10-18T23:11:29.565Z,26.80
2018-10-18T23:13:58.575Z,26.90
2018-10-18T23:16:27.635Z,25.83
2018-10-18T23:18:56.682Z,26.50
2018-10-18T23:21:25.708Z,27.33
2018-10-18T23:23:54.760Z,28.33
2018-10-18T23:26:23.828Z,26.70
2018-10-18T23:28:52.842Z,29.60
2018-10-18T23:31:21.900Z,30.40
2018-10-18T23:33:50.923Z,32.17
2018-10-18T23:36:19.951Z,28.63
2018-10-18T23:38:49.012Z,26.50
2018-10-18T23:41:18.070Z,27.00
2018-10-18T23:43:47.114Z,25.57
2018-10-18T23:46:16.155Z,26.97
2018-10-18T23:48:45.212Z,27.60
2018-10-18T23:51:14.371Z,26.90
2018-10-18T23:53:43.359Z,30.60
2018-10-18T23:56:12.449Z,28.47
2018-10-18T23:58:41.487Z,26.87
